sensor_id;sensor_type;location;lat;lon;timestamp;pressure;altitude;pressure_sealevel;temperature;humidity
35892;BME280;21993;42.672;23.296;2023-05-03T00:00:47;95024.66;;;14.09;44.88
35892;BME280;21993;42.672;23.296;2023-05-03T00:03:12;95018.47;;;14.19;44.36
35892;BME280;21993;42.672;23.296;2023-05-03T00:05:38;95013.19;;;14.19;44.10
35892;BME280;21993;42.672;23.296;2023-05-03T00:08:04;95010.41;;;14.38;44.10
35892;BME280;21993;42.672;23.296;2023-05-03T00:10:29;95019.28;;;14.47;43.47
35892;BME280;21993;42.672;23.296;2023-05-03T00:12:55;95018.19;;;14.40;43.31
35892;BME280;21993;42.672;23.296;2023-05-03T00:15:21;95029.28;;;14.43;43.16
35892;BME280;21993;42.672;23.296;2023-05-03T00:17:46;95033.94;;;14.14;43.64
35892;BME280;21993;42.672;23.296;2023-05-03T00:20:12;95029.47;;;13.96;43.83
35892;BME280;21993;42.672;23.296;2023-05-03T00:22:37;95017.38;;;13.94;43.86
35892;BME280;21993;42.672;23.296;2023-05-03T00:25:03;95037.53;;;13.67;44.18
35892;BME280;21993;42.672;23.296;2023-05-03T00:27:29;95019.69;;;13.51;44.47
35892;BME280;21993;42.672;23.296;2023-05-03T00:29:54;95009.59;;;13.47;44.67
35892;BME280;21993;42.672;23.296;2023-05-03T00:32:20;95011.72;;;13.61;44.40
35892;BME280;21993;42.672;23.296;2023-05-03T00:34:55;95019.16;;;13.75;43.97
35892;BME280;21993;42.672;23.296;2023-05-03T00:37:22;95009.78;;;13.63;44.61
35892;BME280;21993;42.672;23.296;2023-05-03T00:39:47;95017.22;;;13.50;45.18
35892;BME280;21993;42.672;23.296;2023-05-03T00:42:13;95025.91;;;13.60;44.62
35892;BME280;21993;42.672;23.296;2023-05-03T00:44:38;95047.63;;;13.44;44.61
35892;BME280;21993;42.672;23.296;2023-05-03T00:47:04;95021.19;;;13.27;45.21
35892;BME280;21993;42.672;23.296;2023-05-03T00:49:29;95046.44;;;13.29;44.71
35892;BME280;21993;42.672;23.296;2023-05-03T00:51:55;95043.78;;;13.39;44.61
35892;BME280;21993;42.672;23.296;2023-05-03T00:54:21;95063.94;;;13.30;45.20
35892;BME280;21993;42.672;23.296;2023-05-03T00:56:47;95032.44;;;13.29;44.73
35892;BME280;21993;42.672;23.296;2023-05-03T00:59:13;95041.25;;;13.47;44.76
35892;BME280;21993;42.672;23.296;2023-05-03T01:01:39;95046.53;;;13.47;44.38
35892;BME280;21993;42.672;23.296;2023-05-03T01:04:05;95028.47;;;13.42;44.51
35892;BME280;21993;42.672;23.296;2023-05-03T01:11:54;95006.16;;;13.37;44.02
35892;BME280;21993;42.672;23.296;2023-05-03T01:14:44;94999.72;;;13.49;43.95
35892;BME280;21993;42.672;23.296;2023-05-03T01:17:12;95003.72;;;13.53;44.16
35892;BME280;21993;42.672;23.296;2023-05-03T01:19:42;95007.13;;;13.45;43.99
35892;BME280;21993;42.672;23.296;2023-05-03T01:24:40;94984.44;;;13.52;43.85
35892;BME280;21993;42.672;23.296;2023-05-03T01:27:05;94986.22;;;13.52;44.37
35892;BME280;21993;42.672;23.296;2023-05-03T01:29:31;94983.22;;;13.47;44.41
35892;BME280;21993;42.672;23.296;2023-05-03T01:31:59;94978.13;;;13.36;44.34
35892;BME280;21993;42.672;23.296;2023-05-03T01:34:41;94982.78;;;13.51;43.94
35892;BME280;21993;42.672;23.296;2023-05-03T01:37:09;94973.25;;;13.41;44.38
35892;BME280;21993;42.672;23.296;2023-05-03T01:39:54;94976.34;;;13.64;43.83
35892;BME280;21993;42.672;23.296;2023-05-03T01:42:23;94980.13;;;13.51;44.16
35892;BME280;21993;42.672;23.296;2023-05-03T01:44:49;94980.97;;;13.52;44.23
35892;BME280;21993;42.672;23.296;2023-05-03T01:47:15;94974.09;;;13.41;44.23
35892;BME280;21993;42.672;23.296;2023-05-03T01:49:40;94986.78;;;13.56;44.58
35892;BME280;21993;42.672;23.296;2023-05-03T01:52:06;94965.88;;;13.44;44.45
35892;BME280;21993;42.672;23.296;2023-05-03T01:54:31;94958.25;;;13.41;44.27
35892;BME280;21993;42.672;23.296;2023-05-03T01:56:57;94965.03;;;13.44;44.75
35892;BME280;21993;42.672;23.296;2023-05-03T01:59:22;94953.47;;;13.55;43.86
35892;BME280;21993;42.672;23.296;2023-05-03T02:01:48;94947.00;;;13.21;45.07
35892;BME280;21993;42.672;23.296;2023-05-03T02:04:13;94930.72;;;13.16;44.93
35892;BME280;21993;42.672;23.296;2023-05-03T02:06:38;94925.16;;;12.92;45.68
35892;BME280;21993;42.672;23.296;2023-05-03T02:09:04;94954.53;;;12.97;45.53
35892;BME280;21993;42.672;23.296;2023-05-03T02:11:29;94934.09;;;13.09;44.93
35892;BME280;21993;42.672;23.296;2023-05-03T02:13:55;94925.06;;;13.11;45.26
35892;BME280;21993;42.672;23.296;2023-05-03T02:16:20;94916.19;;;13.12;44.65
35892;BME280;21993;42.672;23.296;2023-05-03T02:18:46;94925.22;;;13.10;45.82
35892;BME280;21993;42.672;23.296;2023-05-03T02:21:11;94931.28;;;13.20;45.04
35892;BME280;21993;42.672;23.296;2023-05-03T02:23:37;94933.53;;;13.15;45.42
35892;BME280;21993;42.672;23.296;2023-05-03T02:26:03;94941.28;;;13.16;45.41
35892;BME280;21993;42.672;23.296;2023-05-03T02:28:28;94930.47;;;13.19;45.30
35892;BME280;21993;42.672;23.296;2023-05-03T02:30:54;94926.81;;;13.30;45.03
35892;BME280;21993;42.672;23.296;2023-05-03T02:33:19;94935.84;;;13.28;44.64
35892;BME280;21993;42.672;23.296;2023-05-03T02:35:45;94938.63;;;13.26;45.15
35892;BME280;21993;42.672;23.296;2023-05-03T02:38:10;94941.09;;;13.28;45.09
35892;BME280;21993;42.672;23.296;2023-05-03T02:40:36;94951.00;;;13.16;45.56
35892;BME280;21993;42.672;23.296;2023-05-03T02:43:01;94951.56;;;13.19;45.31
35892;BME280;21993;42.672;23.296;2023-05-03T02:45:28;94938.22;;;13.11;45.66
35892;BME280;21993;42.672;23.296;2023-05-03T02:47:53;94946.84;;;13.23;45.24
35892;BME280;21993;42.672;23.296;2023-05-03T02:50:18;94937.81;;;13.16;45.54
35892;BME280;21993;42.672;23.296;2023-05-03T02:52:44;94930.72;;;13.16;45.36
35892;BME280;21993;42.672;23.296;2023-05-03T02:55:09;94925.41;;;12.99;45.79
35892;BME280;21993;42.672;23.296;2023-05-03T02:57:35;94937.31;;;13.03;46.19
35892;BME280;21993;42.672;23.296;2023-05-03T03:00:00;94932.19;;;13.01;45.57
35892;BME280;21993;42.672;23.296;2023-05-03T03:02:26;94939.16;;;12.92;46.03
35892;BME280;21993;42.672;23.296;2023-05-03T03:04:51;94949.75;;;12.73;46.41
35892;BME280;21993;42.672;23.296;2023-05-03T03:07:17;94952.13;;;12.66;46.44
35892;BME280;21993;42.672;23.296;2023-05-03T03:09:42;94960.00;;;12.76;46.73
35892;BME280;21993;42.672;23.296;2023-05-03T03:12:08;94953.44;;;12.90;46.06
35892;BME280;21993;42.672;23.296;2023-05-03T03:14:33;94955.91;;;13.01;46.42
35892;BME280;21993;42.672;23.296;2023-05-03T03:17:00;94952.84;;;13.06;46.16
35892;BME280;21993;42.672;23.296;2023-05-03T03:19:27;94947.56;;;13.06;46.33
35892;BME280;21993;42.672;23.296;2023-05-03T03:21:52;94956.50;;;12.85;46.56
35892;BME280;21993;42.672;23.296;2023-05-03T03:24:18;94958.16;;;12.96;46.75
35892;BME280;21993;42.672;23.296;2023-05-03T03:26:43;94963.09;;;13.09;46.40
35892;BME280;21993;42.672;23.296;2023-05-03T03:29:09;94969.19;;;13.09;46.24
35892;BME280;21993;42.672;23.296;2023-05-03T03:31:34;94959.56;;;12.90;45.97
35892;BME280;21993;42.672;23.296;2023-05-03T03:34:00;95000.16;;;12.98;46.53
35892;BME280;21993;42.672;23.296;2023-05-03T03:36:25;94986.03;;;12.89;46.74
35892;BME280;21993;42.672;23.296;2023-05-03T03:38:52;94974.50;;;13.00;46.39
35892;BME280;21993;42.672;23.296;2023-05-03T03:41:18;94969.53;;;12.96;46.72
35892;BME280;21993;42.672;23.296;2023-05-03T03:43:44;94979.47;;;13.03;46.20
35892;BME280;21993;42.672;23.296;2023-05-03T03:46:09;94976.59;;;12.96;46.37
35892;BME280;21993;42.672;23.296;2023-05-03T03:48:35;94991.44;;;12.97;45.84
35892;BME280;21993;42.672;23.296;2023-05-03T03:51:00;94993.38;;;12.95;46.45
35892;BME280;21993;42.672;23.296;2023-05-03T03:53:25;94993.50;;;13.03;45.96
35892;BME280;21993;42.672;23.296;2023-05-03T03:55:51;95002.25;;;12.94;46.51
35892;BME280;21993;42.672;23.296;2023-05-03T03:58:16;95005.88;;;12.83;46.76
35892;BME280;21993;42.672;23.296;2023-05-03T04:00:42;94992.44;;;12.77;46.73
35892;BME280;21993;42.672;23.296;2023-05-03T04:03:07;95026.84;;;12.56;46.95
35892;BME280;21993;42.672;23.296;2023-05-03T04:05:33;95008.13;;;12.68;46.73
35892;BME280;21993;42.672;23.296;2023-05-03T04:07:58;95018.66;;;12.59;47.01
35892;BME280;21993;42.672;23.296;2023-05-03T04:10:24;95017.28;;;12.64;47.02
35892;BME280;21993;42.672;23.296;2023-05-03T04:12:49;95016.47;;;12.54;46.83
35892;BME280;21993;42.672;23.296;2023-05-03T04:15:15;95018.53;;;12.60;46.76
35892;BME280;21993;42.672;23.296;2023-05-03T04:17:40;95008.38;;;12.75;46.66
35892;BME280;21993;42.672;23.296;2023-05-03T04:20:06;95025.16;;;12.74;46.96
35892;BME280;21993;42.672;23.296;2023-05-03T04:22:32;95031.84;;;12.59;47.29
35892;BME280;21993;42.672;23.296;2023-05-03T04:24:58;95022.13;;;12.79;46.59
35892;BME280;21993;42.672;23.296;2023-05-03T04:27:25;95036.56;;;12.65;47.38
35892;BME280;21993;42.672;23.296;2023-05-03T04:29:52;95045.56;;;12.62;47.24
35892;BME280;21993;42.672;23.296;2023-05-03T04:32:17;95053.72;;;12.59;47.60
35892;BME280;21993;42.672;23.296;2023-05-03T04:34:50;95067.34;;;12.55;47.60
35892;BME280;21993;42.672;23.296;2023-05-03T04:37:19;95059.97;;;12.58;47.51
35892;BME280;21993;42.672;23.296;2023-05-03T04:39:44;95057.06;;;12.81;47.19
35892;BME280;21993;42.672;23.296;2023-05-03T04:42:11;95060.78;;;12.68;47.58
35892;BME280;21993;42.672;23.296;2023-05-03T04:44:39;95060.66;;;12.80;47.52
35892;BME280;21993;42.672;23.296;2023-05-03T04:47:05;95076.59;;;12.59;47.81
35892;BME280;21993;42.672;23.296;2023-05-03T04:49:30;95089.50;;;12.72;47.79
35892;BME280;21993;42.672;23.296;2023-05-03T04:51:57;95077.97;;;12.82;47.63
35892;BME280;21993;42.672;23.296;2023-05-03T04:54:22;95084.25;;;12.72;47.48
35892;BME280;21993;42.672;23.296;2023-05-03T04:56:47;95070.22;;;12.81;47.67
35892;BME280;21993;42.672;23.296;2023-05-03T04:59:13;95083.81;;;12.76;47.50
35892;BME280;21993;42.672;23.296;2023-05-03T05:01:38;95089.19;;;12.94;47.26
35892;BME280;21993;42.672;23.296;2023-05-03T05:04:04;95086.03;;;12.81;47.48
35892;BME280;21993;42.672;23.296;2023-05-03T05:06:29;95091.31;;;12.61;47.68
35892;BME280;21993;42.672;23.296;2023-05-03T05:08:55;95101.16;;;12.79;47.98
35892;BME280;21993;42.672;23.296;2023-05-03T05:11:20;95111.81;;;12.48;49.41
35892;BME280;21993;42.672;23.296;2023-05-03T05:13:46;95118.47;;;12.72;50.76
35892;BME280;21993;42.672;23.296;2023-05-03T05:16:12;95108.09;;;12.70;51.43
35892;BME280;21993;42.672;23.296;2023-05-03T05:18:37;95108.63;;;12.74;52.04
35892;BME280;21993;42.672;23.296;2023-05-03T05:21:03;95095.31;;;12.65;52.07
35892;BME280;21993;42.672;23.296;2023-05-03T05:23:29;95115.41;;;12.57;51.78
35892;BME280;21993;42.672;23.296;2023-05-03T05:25:54;95119.16;;;12.54;51.72
35892;BME280;21993;42.672;23.296;2023-05-03T05:28:25;95126.78;;;12.57;52.21
35892;BME280;21993;42.672;23.296;2023-05-03T05:30:50;95127.47;;;12.50;51.27
35892;BME280;21993;42.672;23.296;2023-05-03T05:33:16;95125.56;;;12.61;51.54
35892;BME280;21993;42.672;23.296;2023-05-03T05:35:41;95136.88;;;12.52;51.22
35892;BME280;21993;42.672;23.296;2023-05-03T05:38:09;95127.91;;;12.45;51.53
35892;BME280;21993;42.672;23.296;2023-05-03T05:40:34;95144.38;;;12.47;50.70
35892;BME280;21993;42.672;23.296;2023-05-03T05:43:00;95138.38;;;12.26;51.09
35892;BME280;21993;42.672;23.296;2023-05-03T05:45:25;95141.72;;;12.28;51.37
35892;BME280;21993;42.672;23.296;2023-05-03T05:47:51;95130.22;;;12.29;51.16
35892;BME280;21993;42.672;23.296;2023-05-03T05:50:16;95133.53;;;12.31;51.34
35892;BME280;21993;42.672;23.296;2023-05-03T05:52:42;95129.56;;;12.46;51.48
35892;BME280;21993;42.672;23.296;2023-05-03T05:55:07;95130.91;;;12.31;51.11
35892;BME280;21993;42.672;23.296;2023-05-03T05:57:33;95126.50;;;12.41;52.01
35892;BME280;21993;42.672;23.296;2023-05-03T05:59:59;95136.88;;;12.43;51.58
35892;BME280;21993;42.672;23.296;2023-05-03T06:02:24;95138.69;;;12.42;52.04
35892;BME280;21993;42.672;23.296;2023-05-03T06:04:51;95127.16;;;12.33;51.95
35892;BME280;21993;42.672;23.296;2023-05-03T06:07:16;95133.25;;;12.34;52.98
35892;BME280;21993;42.672;23.296;2023-05-03T06:09:42;95121.06;;;12.23;53.24
35892;BME280;21993;42.672;23.296;2023-05-03T06:12:07;95133.00;;;12.37;53.36
35892;BME280;21993;42.672;23.296;2023-05-03T06:14:34;95129.66;;;12.35;52.60
35892;BME280;21993;42.672;23.296;2023-05-03T06:17:00;95128.94;;;12.23;53.33
35892;BME280;21993;42.672;23.296;2023-05-03T06:19:26;95121.03;;;12.14;53.26
35892;BME280;21993;42.672;23.296;2023-05-03T06:21:51;95136.22;;;12.00;52.99
35892;BME280;21993;42.672;23.296;2023-05-03T06:24:17;95127.19;;;11.93;54.13
35892;BME280;21993;42.672;23.296;2023-05-03T06:26:45;95115.19;;;12.10;54.31
35892;BME280;21993;42.672;23.296;2023-05-03T06:29:11;95119.56;;;12.30;53.82
35892;BME280;21993;42.672;23.296;2023-05-03T06:31:37;95107.66;;;12.36;53.85
35892;BME280;21993;42.672;23.296;2023-05-03T06:34:02;95124.28;;;12.46;53.98
35892;BME280;21993;42.672;23.296;2023-05-03T06:36:30;95109.88;;;12.60;54.16
35892;BME280;21993;42.672;23.296;2023-05-03T06:38:55;95101.81;;;12.52;54.40
35892;BME280;21993;42.672;23.296;2023-05-03T06:41:21;95086.59;;;12.65;54.44
35892;BME280;21993;42.672;23.296;2023-05-03T06:43:46;95080.78;;;12.71;53.73
35892;BME280;21993;42.672;23.296;2023-05-03T06:46:11;95083.56;;;12.70;52.96
35892;BME280;21993;42.672;23.296;2023-05-03T06:48:37;95075.66;;;12.70;52.89
35892;BME280;21993;42.672;23.296;2023-05-03T06:51:03;95077.16;;;12.82;53.09
35892;BME280;21993;42.672;23.296;2023-05-03T06:53:29;95068.16;;;12.65;53.82
35892;BME280;21993;42.672;23.296;2023-05-03T06:55:55;95061.38;;;12.62;53.29
35892;BME280;21993;42.672;23.296;2023-05-03T06:58:20;95081.75;;;12.70;53.53
35892;BME280;21993;42.672;23.296;2023-05-03T07:00:46;95086.59;;;12.46;53.63
35892;BME280;21993;42.672;23.296;2023-05-03T07:03:11;95069.53;;;12.69;52.99
35892;BME280;21993;42.672;23.296;2023-05-03T07:05:36;95077.16;;;12.72;53.11
35892;BME280;21993;42.672;23.296;2023-05-03T07:08:02;95073.69;;;12.72;52.61
35892;BME280;21993;42.672;23.296;2023-05-03T07:10:27;95078.16;;;12.61;53.18
35892;BME280;21993;42.672;23.296;2023-05-03T07:12:55;95065.66;;;12.63;53.64
35892;BME280;21993;42.672;23.296;2023-05-03T07:15:20;95061.75;;;12.77;53.06
35892;BME280;21993;42.672;23.296;2023-05-03T07:17:46;95069.69;;;12.87;52.94
35892;BME280;21993;42.672;23.296;2023-05-03T07:20:11;95049.56;;;12.76;52.45
35892;BME280;21993;42.672;23.296;2023-05-03T07:22:38;95058.59;;;12.74;53.40
35892;BME280;21993;42.672;23.296;2023-05-03T07:25:03;95058.44;;;12.85;52.99
35892;BME280;21993;42.672;23.296;2023-05-03T07:27:29;95071.34;;;12.78;52.71
35892;BME280;21993;42.672;23.296;2023-05-03T07:29:54;95071.59;;;12.85;52.75
35892;BME280;21993;42.672;23.296;2023-05-03T07:32:19;95071.91;;;12.72;53.46
35892;BME280;21993;42.672;23.296;2023-05-03T07:34:45;95070.38;;;12.70;53.76
35892;BME280;21993;42.672;23.296;2023-05-03T07:37:11;95068.81;;;12.96;52.93
35892;BME280;21993;42.672;23.296;2023-05-03T07:39:37;95075.06;;;12.95;53.35
35892;BME280;21993;42.672;23.296;2023-05-03T07:42:03;95090.03;;;13.04;53.69
35892;BME280;21993;42.672;23.296;2023-05-03T07:44:28;95080.97;;;13.16;53.09
35892;BME280;21993;42.672;23.296;2023-05-03T07:46:55;95090.13;;;13.32;52.96
35892;BME280;21993;42.672;23.296;2023-05-03T07:49:20;95090.13;;;13.32;53.12
35892;BME280;21993;42.672;23.296;2023-05-03T07:51:46;95096.94;;;13.15;53.15
35892;BME280;21993;42.672;23.296;2023-05-03T07:54:11;95088.19;;;13.34;53.24
35892;BME280;21993;42.672;23.296;2023-05-03T07:56:37;95097.59;;;13.36;52.66
35892;BME280;21993;42.672;23.296;2023-05-03T07:59:02;95096.66;;;13.37;53.00
35892;BME280;21993;42.672;23.296;2023-05-03T08:01:27;95086.00;;;13.29;53.17
35892;BME280;21993;42.672;23.296;2023-05-03T08:03:53;95102.06;;;13.26;53.53
35892;BME280;21993;42.672;23.296;2023-05-03T08:06:19;95094.84;;;13.18;53.40
35892;BME280;21993;42.672;23.296;2023-05-03T08:08:44;95093.22;;;12.98;54.06
35892;BME280;21993;42.672;23.296;2023-05-03T08:11:10;95096.84;;;12.78;54.97
35892;BME280;21993;42.672;23.296;2023-05-03T08:13:36;95097.69;;;12.88;55.10
35892;BME280;21993;42.672;23.296;2023-05-03T08:16:02;95098.47;;;13.17;54.97
35892;BME280;21993;42.672;23.296;2023-05-03T08:18:27;95083.47;;;13.18;54.77
35892;BME280;21993;42.672;23.296;2023-05-03T08:20:53;95089.44;;;13.39;54.26
35892;BME280;21993;42.672;23.296;2023-05-03T08:23:19;95094.09;;;13.55;54.30
35892;BME280;21993;42.672;23.296;2023-05-03T08:25:46;95098.78;;;13.61;53.40
35892;BME280;21993;42.672;23.296;2023-05-03T08:28:11;95098.09;;;13.59;54.00
35892;BME280;21993;42.672;23.296;2023-05-03T08:30:37;95116.00;;;13.65;53.96
35892;BME280;21993;42.672;23.296;2023-05-03T08:33:02;95099.44;;;13.73;53.93
35892;BME280;21993;42.672;23.296;2023-05-03T08:35:28;95092.47;;;13.82;53.94
35892;BME280;21993;42.672;23.296;2023-05-03T08:37:54;95113.09;;;13.96;53.64
35892;BME280;21993;42.672;23.296;2023-05-03T08:40:20;95101.38;;;13.80;54.16
35892;BME280;21993;42.672;23.296;2023-05-03T08:42:46;95086.47;;;13.89;54.17
35892;BME280;21993;42.672;23.296;2023-05-03T08:45:13;95082.34;;;14.04;53.78
35892;BME280;21993;42.672;23.296;2023-05-03T08:47:43;95084.03;;;14.23;53.37
35892;BME280;21993;42.672;23.296;2023-05-03T08:50:13;95081.78;;;14.28;53.71
35892;BME280;21993;42.672;23.296;2023-05-03T08:52:39;95085.31;;;14.37;54.25
35892;BME280;21993;42.672;23.296;2023-05-03T08:55:07;95082.75;;;14.73;52.61
35892;BME280;21993;42.672;23.296;2023-05-03T08:57:33;95092.84;;;14.77;52.22
35892;BME280;21993;42.672;23.296;2023-05-03T09:00:00;95102.31;;;14.80;52.33
35892;BME280;21993;42.672;23.296;2023-05-03T09:02:26;95098.72;;;14.71;52.04
35892;BME280;21993;42.672;23.296;2023-05-03T09:04:53;95101.41;;;14.89;52.02
35892;BME280;21993;42.672;23.296;2023-05-03T09:07:18;95105.16;;;14.86;52.33
35892;BME280;21993;42.672;23.296;2023-05-03T09:09:45;95099.72;;;14.88;52.12
35892;BME280;21993;42.672;23.296;2023-05-03T09:12:11;95085.28;;;15.00;51.99
35892;BME280;21993;42.672;23.296;2023-05-03T09:14:43;95086.63;;;15.04;52.04
35892;BME280;21993;42.672;23.296;2023-05-03T09:19:50;95079.50;;;15.23;51.64
35892;BME280;21993;42.672;23.296;2023-05-03T09:22:17;95065.59;;;15.20;51.91
35892;BME280;21993;42.672;23.296;2023-05-03T09:25:03;95070.44;;;15.25;51.90
35892;BME280;21993;42.672;23.296;2023-05-03T09:27:29;95072.41;;;15.49;51.91
35892;BME280;21993;42.672;23.296;2023-05-03T09:29:54;95066.41;;;15.65;51.35
35892;BME280;21993;42.672;23.296;2023-05-03T09:32:20;95070.91;;;15.72;51.57
35892;BME280;21993;42.672;23.296;2023-05-03T09:34:47;95060.66;;;15.77;50.26
35892;BME280;21993;42.672;23.296;2023-05-03T09:37:12;95058.91;;;15.94;50.38
35892;BME280;21993;42.672;23.296;2023-05-03T09:39:41;95053.28;;;15.97;50.50
35892;BME280;21993;42.672;23.296;2023-05-03T09:42:14;95044.72;;;16.03;50.40
35892;BME280;21993;42.672;23.296;2023-05-03T09:44:49;95038.72;;;15.93;50.59
35892;BME280;21993;42.672;23.296;2023-05-03T09:47:18;95040.91;;;15.98;50.58
35892;BME280;21993;42.672;23.296;2023-05-03T09:49:44;95039.56;;;15.94;51.16
35892;BME280;21993;42.672;23.296;2023-05-03T09:52:10;95044.88;;;16.02;51.28
35892;BME280;21993;42.672;23.296;2023-05-03T09:54:36;95035.94;;;16.03;51.04
35892;BME280;21993;42.672;23.296;2023-05-03T09:57:03;95022.38;;;16.14;51.59
35892;BME280;21993;42.672;23.296;2023-05-03T09:59:31;95022.31;;;16.40;51.40
35892;BME280;21993;42.672;23.296;2023-05-03T10:01:58;95027.09;;;16.53;51.13
35892;BME280;21993;42.672;23.296;2023-05-03T10:04:26;95022.69;;;16.70;49.53
35892;BME280;21993;42.672;23.296;2023-05-03T10:06:58;95024.97;;;16.81;49.90
35892;BME280;21993;42.672;23.296;2023-05-03T10:09:42;95028.31;;;16.83;50.57
35892;BME280;21993;42.672;23.296;2023-05-03T10:12:10;95025.81;;;16.89;50.08
35892;BME280;21993;42.672;23.296;2023-05-03T10:14:42;95022.50;;;16.96;50.21
35892;BME280;21993;42.672;23.296;2023-05-03T10:17:21;95021.31;;;17.23;48.53
35892;BME280;21993;42.672;23.296;2023-05-03T10:19:53;95018.81;;;17.29;48.79
35892;BME280;21993;42.672;23.296;2023-05-03T10:22:19;95005.19;;;17.40;48.31
35892;BME280;21993;42.672;23.296;2023-05-03T10:30:08;94975.63;;;17.52;49.29
35892;BME280;21993;42.672;23.296;2023-05-03T10:32:50;94971.25;;;17.67;48.27
35892;BME280;21993;42.672;23.296;2023-05-03T10:35:16;94976.25;;;17.62;49.26
35892;BME280;21993;42.672;23.296;2023-05-03T10:37:44;94975.91;;;17.57;49.34
35892;BME280;21993;42.672;23.296;2023-05-03T10:40:15;94976.44;;;17.60;49.26
35892;BME280;21993;42.672;23.296;2023-05-03T10:42:49;94964.06;;;17.84;48.59
35892;BME280;21993;42.672;23.296;2023-05-03T10:45:26;94967.16;;;17.95;47.90
35892;BME280;21993;42.672;23.296;2023-05-03T10:50:39;94973.78;;;17.99;47.53
35892;BME280;21993;42.672;23.296;2023-05-03T10:53:05;94977.47;;;17.90;47.54
35892;BME280;21993;42.672;23.296;2023-05-03T10:55:31;94960.66;;;17.98;47.68
35892;BME280;21993;42.672;23.296;2023-05-03T10:57:57;94972.06;;;18.07;47.42
35892;BME280;21993;42.672;23.296;2023-05-03T11:00:33;94969.53;;;18.13;47.30
35892;BME280;21993;42.672;23.296;2023-05-03T11:03:33;94963.91;;;18.16;48.00
35892;BME280;21993;42.672;23.296;2023-05-03T11:06:03;94963.94;;;18.31;47.61
35892;BME280;21993;42.672;23.296;2023-05-03T11:08:28;94963.66;;;18.26;47.21
35892;BME280;21993;42.672;23.296;2023-05-03T11:11:02;94969.03;;;18.18;47.98
35892;BME280;21993;42.672;23.296;2023-05-03T11:13:37;94956.56;;;18.18;47.82
35892;BME280;21993;42.672;23.296;2023-05-03T11:16:03;94962.75;;;18.11;48.47
35892;BME280;21993;42.672;23.296;2023-05-03T11:18:32;94964.22;;;18.13;47.55
35892;BME280;21993;42.672;23.296;2023-05-03T11:20:57;94962.75;;;17.80;47.20
35892;BME280;21993;42.672;23.296;2023-05-03T11:23:25;94966.06;;;17.82;47.61
35892;BME280;21993;42.672;23.296;2023-05-03T11:25:52;94961.41;;;17.84;48.02
35892;BME280;21993;42.672;23.296;2023-05-03T11:28:17;94953.78;;;17.81;46.72
35892;BME280;21993;42.672;23.296;2023-05-03T11:30:45;94938.81;;;17.88;47.49
35892;BME280;21993;42.672;23.296;2023-05-03T11:33:10;94936.75;;;17.98;47.27
35892;BME280;21993;42.672;23.296;2023-05-03T11:35:37;94940.81;;;18.17;47.16
35892;BME280;21993;42.672;23.296;2023-05-03T11:38:02;94947.50;;;18.05;47.72
35892;BME280;21993;42.672;23.296;2023-05-03T11:40:28;94939.59;;;17.96;47.80
35892;BME280;21993;42.672;23.296;2023-05-03T11:42:55;94949.88;;;17.99;48.17
35892;BME280;21993;42.672;23.296;2023-05-03T11:45:45;94940.22;;;17.98;48.97
35892;BME280;21993;42.672;23.296;2023-05-03T11:48:12;94921.25;;;18.10;48.68
35892;BME280;21993;42.672;23.296;2023-05-03T11:50:48;94922.06;;;18.10;48.95
35892;BME280;21993;42.672;23.296;2023-05-03T11:53:17;94913.00;;;18.27;48.40
35892;BME280;21993;42.672;23.296;2023-05-03T11:55:47;94921.72;;;18.36;48.04
35892;BME280;21993;42.672;23.296;2023-05-03T12:00:48;94918.81;;;18.46;48.75
35892;BME280;21993;42.672;23.296;2023-05-03T12:03:18;94903.88;;;18.45;48.43
35892;BME280;21993;42.672;23.296;2023-05-03T12:05:45;94892.22;;;18.46;48.86
35892;BME280;21993;42.672;23.296;2023-05-03T12:08:12;94889.56;;;18.46;48.94
35892;BME280;21993;42.672;23.296;2023-05-03T12:10:40;94892.28;;;18.61;48.34
35892;BME280;21993;42.672;23.296;2023-05-03T12:13:05;94911.78;;;18.53;48.46
35892;BME280;21993;42.672;23.296;2023-05-03T12:15:32;94912.91;;;18.59;48.00
35892;BME280;21993;42.672;23.296;2023-05-03T12:17:59;94901.59;;;18.56;48.02
35892;BME280;21993;42.672;23.296;2023-05-03T12:20:26;94892.66;;;18.35;48.77
35892;BME280;21993;42.672;23.296;2023-05-03T12:22:58;94904.13;;;18.35;48.73
35892;BME280;21993;42.672;23.296;2023-05-03T12:25:24;94913.09;;;18.11;48.74
35892;BME280;21993;42.672;23.296;2023-05-03T12:27:52;94901.16;;;18.07;49.31
35892;BME280;21993;42.672;23.296;2023-05-03T12:30:17;94888.78;;;17.99;48.95
35892;BME280;21993;42.672;23.296;2023-05-03T12:32:43;94901.16;;;18.07;49.07
35892;BME280;21993;42.672;23.296;2023-05-03T12:35:08;94912.50;;;18.01;49.55
35892;BME280;21993;42.672;23.296;2023-05-03T12:37:34;94919.72;;;17.92;49.11
35892;BME280;21993;42.672;23.296;2023-05-03T12:40:00;94900.94;;;17.94;49.21
35892;BME280;21993;42.672;23.296;2023-05-03T12:42:26;94897.78;;;17.59;49.83
35892;BME280;21993;42.672;23.296;2023-05-03T12:44:55;94914.81;;;17.34;50.87
35892;BME280;21993;42.672;23.296;2023-05-03T12:47:21;94900.56;;;17.35;51.20
35892;BME280;21993;42.672;23.296;2023-05-03T12:49:46;94889.16;;;17.26;51.41
35892;BME280;21993;42.672;23.296;2023-05-03T12:52:11;94905.59;;;17.13;51.93
35892;BME280;21993;42.672;23.296;2023-05-03T12:54:37;94902.63;;;17.16;51.91
35892;BME280;21993;42.672;23.296;2023-05-03T12:57:03;94903.66;;;17.07;51.90
35892;BME280;21993;42.672;23.296;2023-05-03T12:59:29;94890.06;;;17.02;52.24
35892;BME280;21993;42.672;23.296;2023-05-03T13:01:55;94894.31;;;17.11;52.52
35892;BME280;21993;42.672;23.296;2023-05-03T13:04:21;94896.03;;;16.88;52.97
35892;BME280;21993;42.672;23.296;2023-05-03T13:06:47;94898.72;;;16.80;53.47
35892;BME280;21993;42.672;23.296;2023-05-03T13:09:14;94889.63;;;16.66;54.38